Westfield, MA

12:03 PM EDT on August 30, 2015 (GMT -0400)
Barnes Municipal | | Change Station
CLOSE
Current Station
Airport
Location: Westfield,
Elevation: 269 ft
Nearby Weather Stations

Elev 269 ft 42.16 °N, 72.71 °W | Updated 10 minutes ago

Overcast
Overcast
76 °F
Feels Like 76 °F
N
5
Wind Variable Wind from SW

Today
High -- | Low -- °F
--% Chance of Precip.
Yesterday
High -- | Low -- °F
Precip. -- in
6:13 AM 7:28 PM
Full, 99% visible
Pressure 30.09 in
Visibility 10.0 miles
Clouds Overcast 12000 ft
Dew Point 64 °F
Humidity 67%
Rainfall 0.00 in
Snow Depth Not available.
UV 3 out of 12
Pollen 10.00 out of 12
Air Quality Not available.
Flu Activity Not available.
METAR KBAF 301553Z 23004KT 10SM OVC120 24/18 A3009 RMK AO2 SLP187 T02440178
Pressure 30.09 in
Visibility 10.0 miles
Clouds Overcast 12000 ft
Dew Point 64 °F
Humidity 67%
Rainfall 0.00 in
Snow Depth Not available.
UV 3 out of 12
Pollen 10.00 out of 12
Air Quality Not available.
Flu Activity Not available.
METAR KBAF 301553Z 23004KT 10SM OVC120 24/18 A3009 RMK AO2 SLP187 T02440178

10-Day Weather Forecast

×

Almanac

Astronomy

Aug. 30, 2015 Rise Set
Actual Time
Civil Twilight
Nautical Twilight
Astronomical Twilight
Moon
Length of Visible Light
Length of Day
Tomorrow will be .
, % of the Moon is Illuminated

Today's Extremes

State Highs State Lows

Community

WunderPhotos

Upload Photos

1,851,002 photos uploaded!

WunderBlogs® & News

Nearby

Air Quality

  Air Quality AQ Index Pollutant
Not available.

Snow Depth

Station Depth Elevation

Earthquake Activity

City Distance Mag. Time & Date
Minimum magnitude displayed is 2.5.

Coastal Water Temperatures

Place Temperature

Stations

Nearby Weather Stations

Station Location Temp. Windchill Dew Point Humidity Wind Precip. Elev Updated Type